createdAt,value
2023-04-28T00:00:05.959Z,101096.03
2023-04-28T00:02:36.111Z,101085.47
2023-04-28T00:05:06.852Z,101081.63
2023-04-28T00:07:39.851Z,101080.66
2023-04-28T00:10:11.515Z,101071.34
2023-04-28T00:12:41.442Z,101065.44
2023-04-28T00:15:13.632Z,101062.72
2023-04-28T00:17:43.678Z,101058.84
2023-04-28T00:20:14.904Z,101056.59
2023-04-28T00:22:47.617Z,101054.38
2023-04-28T00:25:17.548Z,101055.97
2023-04-28T00:27:47.534Z,101050.50
2023-04-28T00:30:18.174Z,101047.31
2023-04-28T00:32:48.582Z,101041.38
2023-04-28T00:35:18.535Z,101033.41
2023-04-28T00:37:51.117Z,101029.69
2023-04-28T00:40:21.316Z,101036.59
2023-04-28T00:42:51.285Z,101030.97
2023-04-28T00:45:21.400Z,101021.53
2023-04-28T00:47:51.333Z,101028.41
2023-04-28T00:50:21.545Z,101023.59
2023-04-28T00:52:54.845Z,101020.41
2023-04-28T00:55:25.275Z,101028.91
2023-04-28T00:57:55.540Z,101024.91
2023-04-28T01:00:25.872Z,101016.25
2023-04-28T01:02:58.438Z,101007.63
2023-04-28T01:05:29.633Z,101017.53
2023-04-28T01:08:02.136Z,101013.06
2023-04-28T01:10:31.981Z,101014.84
2023-04-28T01:13:01.837Z,101014.03
2023-04-28T01:15:32.620Z,101017.09
2023-04-28T01:18:02.905Z,101000.44
2023-04-28T01:20:32.832Z,100994.81
2023-04-28T01:23:05.692Z,100997.06
2023-04-28T01:25:38.419Z,100990.34
2023-04-28T01:28:08.509Z,100998.81
2023-04-28T01:30:40.638Z,101000.41
2023-04-28T01:33:10.882Z,100999.47
2023-04-28T01:35:40.777Z,101000.59
2023-04-28T01:38:10.685Z,101000.59
2023-04-28T01:40:46.121Z,101002.53
2023-04-28T01:43:16.113Z,101002.81
2023-04-28T01:45:47.265Z,101012.91
2023-04-28T01:48:17.065Z,101002.69
2023-04-28T01:50:46.806Z,101000.91
2023-04-28T01:53:24.221Z,101007.00
2023-04-28T01:56:11.664Z,100995.16
2023-04-28T01:58:41.527Z,100989.69
2023-04-28T02:01:11.696Z,100982.81
2023-04-28T02:03:41.706Z,100982.34
2023-04-28T02:06:11.609Z,100975.31
2023-04-28T02:08:41.495Z,100976.44
2023-04-28T02:11:13.962Z,100969.38
2023-04-28T02:13:43.787Z,100959.31
2023-04-28T02:16:13.701Z,100962.50
2023-04-28T02:18:43.693Z,100957.69
2023-04-28T02:21:14.285Z,100949.03
2023-04-28T02:23:44.103Z,100955.28
2023-04-28T02:26:17.372Z,100956.72
2023-04-28T02:28:47.199Z,100954.97
2023-04-28T02:31:17.085Z,100957.03
2023-04-28T02:33:46.936Z,100958.63
2023-04-28T02:36:16.985Z,100971.94
2023-04-28T02:38:46.896Z,100972.72
2023-04-28T02:41:19.401Z,100968.88
2023-04-28T02:43:49.249Z,100968.25
2023-04-28T02:46:19.291Z,100958.66
2023-04-28T02:48:49.241Z,100959.94
2023-04-28T02:51:19.079Z,100952.25
2023-04-28T02:53:48.964Z,100955.47
2023-04-28T02:56:21.470Z,100950.03
2023-04-28T02:58:51.586Z,100945.38
2023-04-28T03:01:21.622Z,100946.66
2023-04-28T03:03:51.678Z,100944.41
2023-04-28T03:06:21.567Z,100957.38
2023-04-28T03:08:51.398Z,100945.69
2023-04-28T03:11:23.870Z,100946.97
2023-04-28T03:13:53.668Z,100946.66
2023-04-28T03:16:23.647Z,100947.44
2023-04-28T03:18:53.506Z,100944.72
2023-04-28T03:21:23.385Z,100936.56
2023-04-28T03:23:53.618Z,100926.47
2023-04-28T03:26:26.145Z,100926.16
2023-04-28T03:28:57.167Z,100921.19
2023-04-28T03:31:27.275Z,100920.41
2023-04-28T03:33:57.133Z,100921.66
2023-04-28T03:36:27.766Z,100922.97
2023-04-28T03:38:57.809Z,100907.44
2023-04-28T03:41:30.357Z,100899.56
2023-04-28T03:44:00.459Z,100890.31
2023-04-28T03:46:30.498Z,100882.78
2023-04-28T03:49:00.352Z,100878.81
2023-04-28T03:51:30.927Z,100881.34
2023-04-28T03:54:00.979Z,100873.06
2023-04-28T03:56:33.531Z,100869.03
2023-04-28T03:59:03.333Z,100865.84
2023-04-28T04:01:33.250Z,100852.41
2023-04-28T04:04:03.412Z,100847.63
2023-04-28T04:06:34.224Z,100846.50
2023-04-28T04:09:04.099Z,100846.03
2023-04-28T04:11:36.638Z,100834.63
2023-04-28T04:14:06.577Z,100845.53
2023-04-28T04:16:36.508Z,100857.69
2023-04-28T04:19:06.364Z,100866.31
2023-04-28T04:21:36.440Z,100879.59
2023-04-28T04:24:07.150Z,100874.16
2023-04-28T04:26:39.713Z,100869.53
2023-04-28T04:29:09.553Z,100857.84
2023-04-28T04:31:39.951Z,100858.63
2023-04-28T04:34:09.963Z,100867.91
2023-04-28T04:36:40.102Z,100871.91
2023-04-28T04:39:09.922Z,100865.03
2023-04-28T04:41:42.658Z,100859.44
2023-04-28T04:44:14.170Z,100860.88
2023-04-28T04:46:44.461Z,100854.97
2023-04-28T04:49:14.352Z,100839.94
2023-04-28T04:51:44.451Z,100839.94
2023-04-28T04:54:14.559Z,100837.66
2023-04-28T04:56:49.044Z,100826.78
2023-04-28T04:59:22.315Z,100832.22
2023-04-28T05:01:52.494Z,100836.25
2023-04-28T05:04:22.899Z,100827.75
2023-04-28T05:06:53.077Z,100829.34
2023-04-28T05:09:23.412Z,100827.75
2023-04-28T05:11:56.309Z,100834.78
2023-04-28T05:14:26.250Z,100826.63
2023-04-28T05:16:57.185Z,100828.22
2023-04-28T05:19:27.735Z,100825.19
2023-04-28T05:21:57.590Z,100821.66
2023-04-28T05:24:27.556Z,100816.09
2023-04-28T05:27:01.919Z,100823.44
2023-04-28T05:29:31.840Z,100818.00
2023-04-28T05:32:01.963Z,100813.69
2023-04-28T05:34:33.934Z,100809.84
2023-04-28T05:37:04.130Z,100813.03
2023-04-28T05:39:34.051Z,100806.47
2023-04-28T05:42:06.909Z,100807.91
2023-04-28T05:44:36.914Z,100805.00
2023-04-28T05:47:07.118Z,100808.38
2023-04-28T05:49:37.032Z,100805.78
2023-04-28T05:52:07.613Z,100800.81
2023-04-28T05:54:37.833Z,100803.38
2023-04-28T05:57:10.777Z,100811.38
2023-04-28T05:59:40.750Z,100807.66
2023-04-28T06:02:10.874Z,100807.81
2023-04-28T06:04:41.936Z,100799.19
2023-04-28T06:07:14.869Z,100799.19
2023-04-28T06:09:45.331Z,100796.91
2023-04-28T06:12:18.360Z,100794.66
2023-04-28T06:14:48.538Z,100786.97
2023-04-28T06:17:18.435Z,100785.66
2023-04-28T06:19:48.307Z,100774.59
2023-04-28T06:22:18.445Z,100778.44
2023-04-28T06:24:48.323Z,100776.97
2023-04-28T06:27:20.969Z,100786.44
2023-04-28T06:29:50.786Z,100785.16
2023-04-28T06:32:20.836Z,100790.75
2023-04-28T06:34:50.713Z,100793.94
2023-04-28T06:37:20.760Z,100788.16
2023-04-28T06:39:50.868Z,100790.88
2023-04-28T06:42:23.495Z,100784.00
2023-04-28T06:44:53.352Z,100784.94
2023-04-28T06:47:23.546Z,100773.41
2023-04-28T06:49:54.495Z,100769.53
2023-04-28T06:52:33.434Z,100765.22
2023-04-28T06:55:09.880Z,100757.63
2023-04-28T06:57:42.844Z,100760.78
2023-04-28T07:00:14.252Z,100762.97
2023-04-28T07:02:44.364Z,100761.75
2023-04-28T07:05:16.117Z,100761.38
2023-04-28T07:07:48.308Z,100759.25
2023-04-28T07:10:18.528Z,100761.75
2023-04-28T07:12:53.056Z,100764.09
2023-04-28T07:15:24.175Z,100767.66
2023-04-28T07:17:54.123Z,100756.81
2023-04-28T07:20:24.071Z,100740.69
2023-04-28T07:22:53.972Z,100747.97
2023-04-28T07:25:24.193Z,100749.91
2023-04-28T07:27:58.389Z,100751.75
2023-04-28T07:30:28.473Z,100750.41
2023-04-28T07:32:58.764Z,100764.06
2023-04-28T07:35:29.253Z,100761.81
2023-04-28T07:37:59.872Z,100766.81
2023-04-28T07:40:29.818Z,100767.84
2023-04-28T07:43:02.711Z,100756.94
2023-04-28T07:45:33.188Z,100760.91
2023-04-28T07:48:03.213Z,100776.31
2023-04-28T07:50:33.398Z,100773.81
2023-04-28T07:53:03.298Z,100777.13
2023-04-28T07:55:33.214Z,100771.91
2023-04-28T07:58:05.958Z,100774.06
2023-04-28T08:00:35.925Z,100774.84
2023-04-28T08:03:06.284Z,100760.28
2023-04-28T08:05:36.468Z,100765.97
2023-04-28T08:08:06.522Z,100756.19
2023-04-28T08:10:36.455Z,100761.88
2023-04-28T08:13:09.002Z,100762.09
2023-04-28T08:15:38.986Z,100765.50
2023-04-28T08:18:09.085Z,100750.03
2023-04-28T08:20:39.081Z,100750.47
2023-04-28T08:23:08.915Z,100752.50
2023-04-28T08:25:38.807Z,100753.19
2023-04-28T08:28:11.387Z,100757.38
2023-04-28T08:30:41.486Z,100746.06
2023-04-28T08:33:11.443Z,100747.00
2023-04-28T08:35:42.539Z,100748.78
2023-04-28T08:38:14.265Z,100747.50
2023-04-28T08:40:44.899Z,100750.09
2023-04-28T08:43:17.437Z,100750.91
2023-04-28T08:45:47.722Z,100753.78
2023-04-28T08:48:25.349Z,100751.50
2023-04-28T08:50:56.074Z,100751.41
2023-04-28T08:53:28.526Z,100748.63
2023-04-28T08:55:59.866Z,100751.41
2023-04-28T08:58:32.607Z,100751.16
2023-04-28T09:01:03.517Z,100760.16
2023-04-28T09:03:34.274Z,100761.19
2023-04-28T09:06:05.333Z,100756.63
2023-04-28T09:08:35.291Z,100749.41
2023-04-28T09:11:13.861Z,100751.78
2023-04-28T09:13:46.418Z,100743.50
2023-04-28T09:16:16.431Z,100741.75
2023-04-28T09:18:59.928Z,100748.03
2023-04-28T09:21:29.793Z,100751.38
2023-04-28T09:23:59.897Z,100745.22
2023-04-28T09:26:29.750Z,100765.06
2023-04-28T09:29:17.587Z,100752.44
2023-04-28T09:31:47.844Z,100748.13
2023-04-28T09:34:18.513Z,100748.19
2023-04-28T09:36:49.083Z,100738.94
2023-04-28T09:39:31.236Z,100743.06
2023-04-28T09:42:03.669Z,100744.66
2023-04-28T09:44:36.519Z,100742.97
2023-04-28T09:47:25.261Z,100732.03
2023-04-28T09:50:00.079Z,100735.19
2023-04-28T09:52:30.531Z,100739.44
2023-04-28T09:55:00.969Z,100739.88
2023-04-28T09:57:34.813Z,100726.97
2023-04-28T10:00:09.549Z,100732.03
2023-04-28T10:02:43.706Z,100729.00
2023-04-28T10:05:16.597Z,100719.78
2023-04-28T10:07:47.529Z,100718.53
2023-04-28T10:10:19.404Z,100726.16
2023-04-28T10:12:49.904Z,100727.06
2023-04-28T10:15:23.339Z,100726.66
2023-04-28T10:17:54.112Z,100731.63
2023-04-28T10:20:26.477Z,100733.66
2023-04-28T10:23:07.869Z,100724.13
2023-04-28T10:25:39.776Z,100714.91
2023-04-28T10:28:11.566Z,100718.59
2023-04-28T10:30:44.272Z,100718.69
2023-04-28T10:33:32.589Z,100725.31
2023-04-28T10:36:03.921Z,100724.94
2023-04-28T10:38:34.089Z,100724.59
2023-04-28T10:41:04.808Z,100730.94
2023-04-28T10:43:42.677Z,100729.63
2023-04-28T10:46:15.703Z,100729.63
2023-04-28T10:48:59.169Z,100724.94
2023-04-28T10:51:33.362Z,100732.91
2023-04-28T10:54:28.481Z,100726.97
2023-04-28T10:57:23.323Z,100729.50
2023-04-28T10:59:54.617Z,100726.56
2023-04-28T11:02:48.245Z,100726.03
2023-04-28T11:05:20.121Z,100728.41
2023-04-28T11:08:33.486Z,100724.47
2023-04-28T11:11:19.632Z,100723.72
2023-04-28T11:13:50.369Z,100725.47
2023-04-28T11:16:25.919Z,100720.13
2023-04-28T11:19:05.580Z,100718.09
2023-04-28T11:21:36.640Z,100716.38
2023-04-28T11:24:13.152Z,100714.97
2023-04-28T11:26:44.005Z,100720.47
2023-04-28T11:29:15.313Z,100714.28
2023-04-28T11:31:52.964Z,100707.06
2023-04-28T11:34:26.930Z,100713.34
2023-04-28T11:36:59.198Z,100724.00
2023-04-28T11:39:31.786Z,100712.75
2023-04-28T11:42:03.127Z,100719.97
2023-04-28T11:44:34.668Z,100714.19
2023-04-28T11:47:06.293Z,100716.56
2023-04-28T11:49:46.713Z,100715.78
2023-04-28T11:52:16.952Z,100723.00
2023-04-28T11:54:46.922Z,100724.16
2023-04-28T11:57:27.029Z,100711.88
2023-04-28T11:59:57.197Z,100722.56
2023-04-28T12:02:31.360Z,100723.31
2023-04-28T12:05:09.585Z,100716.53
2023-04-28T12:07:45.933Z,100716.16
2023-04-28T12:10:19.184Z,100725.25
2023-04-28T12:12:52.682Z,100717.97
2023-04-28T12:15:25.029Z,100724.28
2023-04-28T12:17:55.431Z,100721.28
2023-04-28T12:20:42.927Z,100718.13
2023-04-28T12:23:13.177Z,100718.94
2023-04-28T12:25:49.699Z,100720.56
2023-04-28T12:28:19.718Z,100716.78
2023-04-28T12:30:50.014Z,100715.34
2023-04-28T12:33:27.716Z,100720.13
2023-04-28T12:36:01.730Z,100704.50
2023-04-28T12:38:32.653Z,100697.66
2023-04-28T12:41:02.946Z,100690.94
2023-04-28T12:43:33.550Z,100694.78
2023-04-28T12:46:04.345Z,100692.97
2023-04-28T12:48:35.105Z,100682.41
2023-04-28T12:51:09.413Z,100683.03
2023-04-28T12:53:39.528Z,100680.81
2023-04-28T12:56:10.590Z,100688.72
2023-04-28T12:58:41.482Z,100680.53
2023-04-28T13:01:13.787Z,100690.75
2023-04-28T13:03:44.625Z,100692.31
2023-04-28T13:06:20.295Z,100689.91
2023-04-28T13:08:50.174Z,100682.81
2023-04-28T13:11:22.905Z,100675.72
2023-04-28T13:13:53.611Z,100685.16
2023-04-28T13:16:25.350Z,100668.66
2023-04-28T13:18:55.227Z,100669.47
2023-04-28T13:21:29.067Z,100666.47
2023-04-28T13:23:59.680Z,100674.50
2023-04-28T13:26:30.729Z,100661.63
2023-04-28T13:29:00.890Z,100656.66
2023-04-28T13:31:30.991Z,100658.25
2023-04-28T13:34:02.780Z,100660.22
2023-04-28T13:36:36.289Z,100654.41
2023-04-28T13:39:06.756Z,100651.38
2023-04-28T13:41:37.203Z,100647.91
2023-04-28T13:44:07.216Z,100647.22
2023-04-28T13:46:37.226Z,100637.41
2023-04-28T13:49:07.517Z,100643.72
2023-04-28T13:51:40.147Z,100640.97
2023-04-28T13:54:11.774Z,100633.03
2023-04-28T13:56:41.866Z,100638.53
2023-04-28T13:59:11.782Z,100631.09
2023-04-28T14:01:41.678Z,100632.75
2023-04-28T14:04:11.886Z,100627.28
2023-04-28T14:06:46.970Z,100631.63
2023-04-28T14:09:17.261Z,100643.81
2023-04-28T14:11:49.065Z,100639.88
2023-04-28T14:14:19.238Z,100634.38
2023-04-28T14:16:50.542Z,100632.81
2023-04-28T14:19:21.155Z,100627.22
2023-04-28T14:21:53.890Z,100633.59
2023-04-28T14:24:24.182Z,100631.31
2023-04-28T14:26:55.261Z,100626.81
2023-04-28T14:29:25.185Z,100627.63
2023-04-28T14:31:55.059Z,100627.56
2023-04-28T14:34:25.065Z,100625.19
2023-04-28T14:36:57.711Z,100625.94
2023-04-28T14:39:27.621Z,100636.94
2023-04-28T14:41:57.614Z,100636.06
2023-04-28T14:44:27.685Z,100647.41
2023-04-28T14:46:57.680Z,100648.16
2023-04-28T14:49:27.861Z,100650.84
2023-04-28T14:52:01.155Z,100653.66
2023-04-28T14:54:31.331Z,100662.75
2023-04-28T14:57:01.891Z,100666.31
2023-04-28T14:59:31.846Z,100655.25
2023-04-28T15:02:02.157Z,100655.56
2023-04-28T15:04:32.230Z,100662.09
2023-04-28T15:07:04.817Z,100676.56
2023-04-28T15:09:34.699Z,100682.75
2023-04-28T15:12:04.645Z,100676.44
2023-04-28T15:14:34.704Z,100685.09
2023-04-28T15:17:04.588Z,100696.16
2023-04-28T15:19:34.957Z,100703.19
2023-04-28T15:22:07.570Z,100702.38
2023-04-28T15:24:37.737Z,100706.22
2023-04-28T15:27:07.725Z,100718.72
2023-04-28T15:29:38.405Z,100723.25
2023-04-28T15:32:08.913Z,100728.69
2023-04-28T15:34:39.174Z,100735.66
2023-04-28T15:37:43.807Z,100731.41
2023-04-28T15:40:15.918Z,100731.34
2023-04-28T15:42:49.584Z,100728.66
2023-04-28T15:45:20.197Z,100732.22
2023-04-28T15:47:51.301Z,100734.34
2023-04-28T15:50:22.128Z,100735.66
2023-04-28T15:52:54.873Z,100742.13
2023-04-28T15:55:25.627Z,100733.44
2023-04-28T15:57:55.564Z,100736.34
2023-04-28T16:00:25.853Z,100743.00
2023-04-28T16:02:55.804Z,100741.88
2023-04-28T16:05:26.495Z,100739.59
2023-04-28T16:07:58.997Z,100746.66
2023-04-28T16:10:28.996Z,100752.94
2023-04-28T16:12:59.052Z,100747.03
2023-04-28T16:15:28.850Z,100752.84
2023-04-28T16:17:58.883Z,100750.84
2023-04-28T16:20:28.721Z,100755.44
2023-04-28T16:23:01.266Z,100755.81
2023-04-28T16:25:31.158Z,100760.41
2023-04-28T16:28:01.156Z,100776.13
2023-04-28T16:30:31.120Z,100777.13
2023-04-28T16:33:01.124Z,100777.28
2023-04-28T16:35:31.034Z,100772.56
2023-04-28T16:38:03.679Z,100774.97
2023-04-28T16:40:33.730Z,100779.34
2023-04-28T16:43:03.702Z,100778.94
2023-04-28T16:45:33.841Z,100771.34
2023-04-28T16:48:03.866Z,100772.53
2023-04-28T16:50:36.580Z,100772.09
2023-04-28T16:53:10.402Z,100773.31
2023-04-28T16:55:40.755Z,100772.56
2023-04-28T16:58:10.685Z,100774.47
2023-04-28T17:00:40.614Z,100777.94
2023-04-28T17:03:10.567Z,100777.91
2023-04-28T17:05:40.521Z,100783.31
2023-04-28T17:08:13.351Z,100785.22
2023-04-28T17:10:43.173Z,100778.06
2023-04-28T17:13:12.941Z,100773.72
2023-04-28T17:15:43.105Z,100773.31
2023-04-28T17:18:12.915Z,100771.28
2023-04-28T17:20:43.236Z,100776.78
2023-04-28T17:23:15.992Z,100778.34
2023-04-28T17:25:45.894Z,100784.59
2023-04-28T17:28:15.905Z,100786.06
2023-04-28T17:30:47.603Z,100781.22
2023-04-28T17:33:18.177Z,100790.59
2023-04-28T17:35:48.262Z,100788.13
2023-04-28T17:38:20.661Z,100795.56
2023-04-28T17:40:51.320Z,100795.16
2023-04-28T17:43:21.998Z,100810.81
2023-04-28T17:45:54.403Z,100802.56
2023-04-28T17:48:24.506Z,100804.69
2023-04-28T17:50:54.676Z,100810.53
2023-04-28T17:53:27.616Z,100815.97
2023-04-28T17:55:57.636Z,100810.34
2023-04-28T17:58:27.578Z,100812.66
2023-04-28T18:01:03.277Z,100820.53
2023-04-28T18:03:33.697Z,100821.31
2023-04-28T18:06:07.781Z,100817.78
2023-04-28T18:08:40.375Z,100820.81
2023-04-28T18:11:10.232Z,100817.91
2023-04-28T18:13:40.145Z,100817.22
2023-04-28T18:16:14.045Z,100821.03
2023-04-28T18:18:44.711Z,100816.28
2023-04-28T18:21:15.145Z,100821.50
2023-04-28T18:23:48.170Z,100822.50
2023-04-28T18:26:18.391Z,100829.84
2023-04-28T18:28:49.741Z,100827.41
2023-04-28T18:31:19.743Z,100833.59
2023-04-28T18:33:50.056Z,100839.03
2023-04-28T18:36:19.922Z,100833.44
2023-04-28T18:38:52.466Z,100840.81
2023-04-28T18:41:22.225Z,100842.88
2023-04-28T18:43:52.138Z,100837.56
2023-04-28T18:46:22.467Z,100839.00
2023-04-28T18:48:52.498Z,100841.28
2023-04-28T18:51:22.852Z,100841.28
2023-04-28T18:53:55.306Z,100836.94
2023-04-28T18:56:26.663Z,100842.00
2023-04-28T18:58:57.014Z,100841.47
2023-04-28T19:01:27.760Z,100846.41
2023-04-28T19:03:57.926Z,100844.81
2023-04-28T19:06:27.866Z,100840.75
2023-04-28T19:09:01.792Z,100852.78
2023-04-28T19:11:32.441Z,100850.41
2023-04-28T19:14:02.433Z,100845.19
2023-04-28T19:16:32.323Z,100851.34
2023-04-28T19:19:02.683Z,100860.72
2023-04-28T19:21:34.521Z,100860.72
2023-04-28T19:24:07.555Z,100870.88
2023-04-28T19:26:37.855Z,100868.47
2023-04-28T19:29:08.178Z,100871.22
2023-04-28T19:31:38.080Z,100874.69
2023-04-28T19:34:07.981Z,100874.22
2023-04-28T19:36:39.335Z,100876.94
2023-04-28T19:39:11.911Z,100872.19
2023-04-28T19:41:41.790Z,100878.81
2023-04-28T19:44:11.774Z,100878.47
2023-04-28T19:46:42.934Z,100876.06
2023-04-28T19:49:14.535Z,100873.69
2023-04-28T19:51:44.588Z,100875.16
2023-04-28T19:54:17.114Z,100878.25
2023-04-28T19:56:47.219Z,100882.94
2023-04-28T19:59:17.872Z,100884.47
2023-04-28T20:01:47.888Z,100891.06
2023-04-28T20:04:18.934Z,100893.78
2023-04-28T20:06:49.113Z,100892.22
2023-04-28T20:09:21.856Z,100896.22
2023-04-28T20:11:51.753Z,100892.31
2023-04-28T20:14:21.862Z,100897.81
2023-04-28T20:16:51.797Z,100898.47
2023-04-28T20:19:21.726Z,100894.88
2023-04-28T20:21:51.924Z,100896.09
2023-04-28T20:24:24.632Z,100894.50
2023-04-28T20:26:54.958Z,100901.03
2023-04-28T20:29:25.393Z,100905.34
2023-04-28T20:31:55.340Z,100910.16
2023-04-28T20:34:25.377Z,100907.06
2023-04-28T20:36:55.955Z,100899.28
2023-04-28T20:39:28.627Z,100900.22
2023-04-28T20:41:59.602Z,100896.94
2023-04-28T20:44:32.801Z,100902.41
2023-04-28T20:47:02.767Z,100895.34
2023-04-28T20:49:33.132Z,100894.00
2023-04-28T20:52:06.698Z,100894.72
2023-04-28T20:54:40.095Z,100896.41
2023-04-28T20:57:09.989Z,100896.84
2023-04-28T20:59:39.989Z,100894.31
2023-04-28T21:02:11.597Z,100891.94
2023-04-28T21:04:41.684Z,100891.94
2023-04-28T21:07:11.533Z,100897.28
2023-04-28T21:09:44.209Z,100899.59
2023-04-28T21:12:15.108Z,100900.38
2023-04-28T21:14:45.375Z,100902.22
2023-04-28T21:17:15.519Z,100900.91
2023-04-28T21:19:45.444Z,100909.13
2023-04-28T21:22:15.298Z,100904.75
2023-04-28T21:24:47.977Z,100918.91
2023-04-28T21:27:18.098Z,100907.06
2023-04-28T21:29:47.996Z,100906.84
2023-04-28T21:32:18.070Z,100911.75
2023-04-28T21:34:50.429Z,100915.19
2023-04-28T21:37:20.390Z,100916.50
2023-04-28T21:39:53.139Z,100921.84
2023-04-28T21:42:23.138Z,100916.28
2023-04-28T21:44:53.123Z,100921.06
2023-04-28T21:47:22.954Z,100924.81
2023-04-28T21:49:52.914Z,100920.03
2023-04-28T21:52:22.745Z,100919.91
2023-04-28T21:54:55.500Z,100918.81
2023-04-28T21:57:25.254Z,100916.06
2023-04-28T21:59:55.233Z,100916.75
2023-04-28T22:02:25.417Z,100921.75
2023-04-28T22:04:55.569Z,100922.22
2023-04-28T22:07:25.948Z,100924.50
2023-04-28T22:09:59.924Z,100934.31
2023-04-28T22:12:29.739Z,100941.59
2023-04-28T22:15:00.343Z,100937.03
2023-04-28T22:17:30.390Z,100941.59
2023-04-28T22:20:00.281Z,100940.22
2023-04-28T22:22:30.121Z,100937.81
2023-04-28T22:25:02.818Z,100940.56
2023-04-28T22:27:33.559Z,100948.31
2023-04-28T22:30:04.192Z,100947.28
2023-04-28T22:32:34.542Z,100958.22
2023-04-28T22:35:04.925Z,100963.69
2023-04-28T22:37:34.704Z,100961.16
2023-04-28T22:40:08.694Z,100965.94
2023-04-28T22:42:39.703Z,100974.38
2023-04-28T22:45:10.929Z,100964.91
2023-04-28T22:47:43.134Z,100972.78
2023-04-28T22:50:14.535Z,100975.97
2023-04-28T22:52:44.466Z,100972.44
2023-04-28T22:55:17.077Z,100973.69
2023-04-28T22:57:46.855Z,100972.09
2023-04-28T23:00:18.662Z,100970.50
2023-04-28T23:02:48.588Z,100969.72
2023-04-28T23:05:18.685Z,100981.44
2023-04-28T23:07:49.427Z,100979.84
2023-04-28T23:10:22.197Z,100979.16
2023-04-28T23:12:52.064Z,100973.81
2023-04-28T23:15:22.125Z,100978.50
2023-04-28T23:17:52.081Z,100978.50
2023-04-28T23:20:22.134Z,100981.84
2023-04-28T23:22:52.747Z,100981.63
2023-04-28T23:25:25.653Z,100981.31
2023-04-28T23:27:56.366Z,100989.81
2023-04-28T23:30:26.410Z,100990.97
2023-04-28T23:32:56.689Z,100987.56
2023-04-28T23:35:26.725Z,100991.44
2023-04-28T23:37:56.753Z,100993.25
2023-04-28T23:40:29.733Z,100998.56
2023-04-28T23:43:00.112Z,100993.44
2023-04-28T23:45:30.072Z,100998.31
2023-04-28T23:47:59.990Z,101000.47
2023-04-28T23:50:30.798Z,100999.69
2023-04-28T23:53:00.682Z,100994.88
2023-04-28T23:55:33.122Z,100991.69
2023-04-28T23:58:04.905Z,101003.63
